sensor_id;sensor_type;location;lat;lon;timestamp;temperature;humidity
17687;DHT22;8962;52.538;13.266;2023-04-03T00:00:12;1.50;99.90
17687;DHT22;8962;52.538;13.266;2023-04-03T00:02:39;1.40;99.90
17687;DHT22;8962;52.538;13.266;2023-04-03T00:05:08;1.40;99.90
17687;DHT22;8962;52.538;13.266;2023-04-03T00:07:36;1.40;99.90
17687;DHT22;8962;52.538;13.266;2023-04-03T00:10:04;1.40;99.90
17687;DHT22;8962;52.538;13.266;2023-04-03T00:12:34;1.40;99.90
17687;DHT22;8962;52.538;13.266;2023-04-03T00:15:01;1.40;99.90
17687;DHT22;8962;52.538;13.266;2023-04-03T00:17:28;1.40;99.90
17687;DHT22;8962;52.538;13.266;2023-04-03T00:19:55;1.40;99.90
17687;DHT22;8962;52.538;13.266;2023-04-03T00:22:23;1.40;99.90
17687;DHT22;8962;52.538;13.266;2023-04-03T00:24:52;1.40;99.90
17687;DHT22;8962;52.538;13.266;2023-04-03T00:27:20;1.30;99.90
17687;DHT22;8962;52.538;13.266;2023-04-03T00:29:49;1.30;99.90
17687;DHT22;8962;52.538;13.266;2023-04-03T00:32:16;1.30;99.90
17687;DHT22;8962;52.538;13.266;2023-04-03T00:34:45;1.30;99.90
17687;DHT22;8962;52.538;13.266;2023-04-03T00:37:12;1.30;99.90
17687;DHT22;8962;52.538;13.266;2023-04-03T00:39:39;1.30;99.90
17687;DHT22;8962;52.538;13.266;2023-04-03T00:42:06;1.20;99.90
17687;DHT22;8962;52.538;13.266;2023-04-03T00:47:54;1.20;99.90
17687;DHT22;8962;52.538;13.266;2023-04-03T00:50:23;1.20;99.90
17687;DHT22;8962;52.538;13.266;2023-04-03T00:52:51;1.20;99.90
17687;DHT22;8962;52.538;13.266;2023-04-03T00:55:19;1.20;99.90
17687;DHT22;8962;52.538;13.266;2023-04-03T00:57:48;1.20;99.90
17687;DHT22;8962;52.538;13.266;2023-04-03T01:00:19;1.10;99.90
17687;DHT22;8962;52.538;13.266;2023-04-03T01:02:48;1.10;99.90
17687;DHT22;8962;52.538;13.266;2023-04-03T01:05:17;1.10;99.90
17687;DHT22;8962;52.538;13.266;2023-04-03T01:07:46;1.20;99.90
17687;DHT22;8962;52.538;13.266;2023-04-03T01:10:16;1.10;99.90
17687;DHT22;8962;52.538;13.266;2023-04-03T01:12:46;1.10;99.90
17687;DHT22;8962;52.538;13.266;2023-04-03T01:15:16;1.00;99.90
17687;DHT22;8962;52.538;13.266;2023-04-03T01:17:45;1.00;99.90
17687;DHT22;8962;52.538;13.266;2023-04-03T01:23:41;1.10;99.90
17687;DHT22;8962;52.538;13.266;2023-04-03T01:26:15;1.00;99.90
17687;DHT22;8962;52.538;13.266;2023-04-03T01:28:42;1.00;99.90
17687;DHT22;8962;52.538;13.266;2023-04-03T01:31:19;0.90;99.90
17687;DHT22;8962;52.538;13.266;2023-04-03T01:33:49;1.00;99.90
17687;DHT22;8962;52.538;13.266;2023-04-03T01:36:20;1.00;99.90
17687;DHT22;8962;52.538;13.266;2023-04-03T01:38:48;1.00;99.90
17687;DHT22;8962;52.538;13.266;2023-04-03T01:41:15;0.90;99.90
17687;DHT22;8962;52.538;13.266;2023-04-03T01:43:44;0.90;99.90
17687;DHT22;8962;52.538;13.266;2023-04-03T01:46:12;0.90;99.90
17687;DHT22;8962;52.538;13.266;2023-04-03T01:48:40;0.90;99.90
17687;DHT22;8962;52.538;13.266;2023-04-03T01:51:09;0.90;99.90
17687;DHT22;8962;52.538;13.266;2023-04-03T01:53:37;0.80;99.90
17687;DHT22;8962;52.538;13.266;2023-04-03T01:56:05;0.80;99.90
17687;DHT22;8962;52.538;13.266;2023-04-03T01:58:34;0.80;99.90
17687;DHT22;8962;52.538;13.266;2023-04-03T02:01:01;0.80;99.90
17687;DHT22;8962;52.538;13.266;2023-04-03T02:03:28;0.70;99.90
17687;DHT22;8962;52.538;13.266;2023-04-03T02:05:56;0.80;99.90
17687;DHT22;8962;52.538;13.266;2023-04-03T02:08:25;0.70;99.90
17687;DHT22;8962;52.538;13.266;2023-04-03T02:10:52;0.70;99.90
17687;DHT22;8962;52.538;13.266;2023-04-03T02:13:19;0.70;99.90
17687;DHT22;8962;52.538;13.266;2023-04-03T02:15:47;0.60;99.90
17687;DHT22;8962;52.538;13.266;2023-04-03T02:18:16;0.60;99.90
17687;DHT22;8962;52.538;13.266;2023-04-03T02:20:43;0.50;99.90
17687;DHT22;8962;52.538;13.266;2023-04-03T02:23:10;0.50;99.90
17687;DHT22;8962;52.538;13.266;2023-04-03T02:25:39;0.70;99.90
17687;DHT22;8962;52.538;13.266;2023-04-03T02:28:06;0.70;99.90
17687;DHT22;8962;52.538;13.266;2023-04-03T02:30:34;0.70;99.90
17687;DHT22;8962;52.538;13.266;2023-04-03T02:33:01;0.80;99.90
17687;DHT22;8962;52.538;13.266;2023-04-03T02:35:29;1.00;99.90
17687;DHT22;8962;52.538;13.266;2023-04-03T02:37:58;1.00;99.90
17687;DHT22;8962;52.538;13.266;2023-04-03T02:40:28;0.80;99.90
17687;DHT22;8962;52.538;13.266;2023-04-03T02:42:57;0.80;99.90
17687;DHT22;8962;52.538;13.266;2023-04-03T02:45:24;0.70;99.90
17687;DHT22;8962;52.538;13.266;2023-04-03T02:47:55;0.60;99.90
17687;DHT22;8962;52.538;13.266;2023-04-03T02:50:22;0.80;99.90
17687;DHT22;8962;52.538;13.266;2023-04-03T02:52:49;0.90;99.90
17687;DHT22;8962;52.538;13.266;2023-04-03T02:55:16;0.70;99.90
17687;DHT22;8962;52.538;13.266;2023-04-03T02:57:47;0.70;99.90
17687;DHT22;8962;52.538;13.266;2023-04-03T03:00:16;0.70;99.90
17687;DHT22;8962;52.538;13.266;2023-04-03T03:02:43;0.70;99.90
17687;DHT22;8962;52.538;13.266;2023-04-03T03:05:10;0.60;99.90
17687;DHT22;8962;52.538;13.266;2023-04-03T03:07:38;0.80;99.90
17687;DHT22;8962;52.538;13.266;2023-04-03T03:10:06;0.80;99.90
17687;DHT22;8962;52.538;13.266;2023-04-03T03:12:34;0.80;99.90
17687;DHT22;8962;52.538;13.266;2023-04-03T03:15:01;0.70;99.90
17687;DHT22;8962;52.538;13.266;2023-04-03T03:17:30;0.70;99.90
17687;DHT22;8962;52.538;13.266;2023-04-03T03:19:57;0.70;99.90
17687;DHT22;8962;52.538;13.266;2023-04-03T03:22:24;0.60;99.90
17687;DHT22;8962;52.538;13.266;2023-04-03T03:24:52;0.50;99.90
17687;DHT22;8962;52.538;13.266;2023-04-03T03:27:19;0.40;99.90
17687;DHT22;8962;52.538;13.266;2023-04-03T03:29:46;0.70;99.90
17687;DHT22;8962;52.538;13.266;2023-04-03T03:32:14;0.60;99.90
17687;DHT22;8962;52.538;13.266;2023-04-03T03:34:42;0.50;99.90
17687;DHT22;8962;52.538;13.266;2023-04-03T03:37:09;0.50;99.90
17687;DHT22;8962;52.538;13.266;2023-04-03T03:39:37;0.50;99.90
17687;DHT22;8962;52.538;13.266;2023-04-03T03:42:04;0.50;99.90
17687;DHT22;8962;52.538;13.266;2023-04-03T03:44:31;0.70;99.90
17687;DHT22;8962;52.538;13.266;2023-04-03T03:46:58;0.60;99.90
17687;DHT22;8962;52.538;13.266;2023-04-03T03:49:27;0.50;99.90
17687;DHT22;8962;52.538;13.266;2023-04-03T03:51:56;0.30;99.90
17687;DHT22;8962;52.538;13.266;2023-04-03T03:54:23;0.30;99.90
17687;DHT22;8962;52.538;13.266;2023-04-03T03:56:50;0.40;99.90
17687;DHT22;8962;52.538;13.266;2023-04-03T03:59:18;0.50;99.90
17687;DHT22;8962;52.538;13.266;2023-04-03T04:01:46;0.50;99.90
17687;DHT22;8962;52.538;13.266;2023-04-03T04:04:13;0.50;99.90
17687;DHT22;8962;52.538;13.266;2023-04-03T04:06:40;0.50;99.90
17687;DHT22;8962;52.538;13.266;2023-04-03T04:09:11;0.50;99.90
17687;DHT22;8962;52.538;13.266;2023-04-03T04:11:38;0.40;99.90
17687;DHT22;8962;52.538;13.266;2023-04-03T04:14:08;0.30;99.90
17687;DHT22;8962;52.538;13.266;2023-04-03T04:16:36;0.40;99.90
17687;DHT22;8962;52.538;13.266;2023-04-03T04:19:09;0.40;99.90
17687;DHT22;8962;52.538;13.266;2023-04-03T04:21:37;0.30;99.90
17687;DHT22;8962;52.538;13.266;2023-04-03T04:24:06;0.50;99.90
17687;DHT22;8962;52.538;13.266;2023-04-03T04:26:35;0.30;99.90
17687;DHT22;8962;52.538;13.266;2023-04-03T04:29:03;0.30;99.90
17687;DHT22;8962;52.538;13.266;2023-04-03T04:31:33;0.30;99.90
17687;DHT22;8962;52.538;13.266;2023-04-03T04:34:01;0.20;99.90
17687;DHT22;8962;52.538;13.266;2023-04-03T04:36:28;0.40;99.90
17687;DHT22;8962;52.538;13.266;2023-04-03T04:38:55;0.30;99.90
17687;DHT22;8962;52.538;13.266;2023-04-03T04:41:26;0.20;99.90
17687;DHT22;8962;52.538;13.266;2023-04-03T04:43:56;0.40;99.90
17687;DHT22;8962;52.538;13.266;2023-04-03T04:46:24;0.20;99.90
17687;DHT22;8962;52.538;13.266;2023-04-03T04:48:56;0.20;99.90
17687;DHT22;8962;52.538;13.266;2023-04-03T04:51:27;0.40;99.90
17687;DHT22;8962;52.538;13.266;2023-04-03T04:53:55;0.50;99.90
17687;DHT22;8962;52.538;13.266;2023-04-03T04:56:24;0.40;99.90
17687;DHT22;8962;52.538;13.266;2023-04-03T04:58:53;0.40;99.90
17687;DHT22;8962;52.538;13.266;2023-04-03T05:01:23;0.40;99.90
17687;DHT22;8962;52.538;13.266;2023-04-03T05:04:04;0.30;99.90
17687;DHT22;8962;52.538;13.266;2023-04-03T05:06:32;0.30;99.90
17687;DHT22;8962;52.538;13.266;2023-04-03T05:09:02;0.30;99.90
17687;DHT22;8962;52.538;13.266;2023-04-03T05:11:32;0.40;99.90
17687;DHT22;8962;52.538;13.266;2023-04-03T05:13:59;0.50;99.90
17687;DHT22;8962;52.538;13.266;2023-04-03T05:16:30;0.40;99.90
17687;DHT22;8962;52.538;13.266;2023-04-03T05:18:57;0.50;99.90
17687;DHT22;8962;52.538;13.266;2023-04-03T05:21:25;0.50;99.90
17687;DHT22;8962;52.538;13.266;2023-04-03T05:23:54;0.70;99.90
17687;DHT22;8962;52.538;13.266;2023-04-03T05:26:21;0.70;99.90
17687;DHT22;8962;52.538;13.266;2023-04-03T05:28:49;0.80;99.90
17687;DHT22;8962;52.538;13.266;2023-04-03T05:31:19;0.70;99.90
17687;DHT22;8962;52.538;13.266;2023-04-03T05:33:48;0.70;99.90
17687;DHT22;8962;52.538;13.266;2023-04-03T05:36:17;0.70;99.90
17687;DHT22;8962;52.538;13.266;2023-04-03T05:38:49;0.80;99.90
17687;DHT22;8962;52.538;13.266;2023-04-03T05:41:17;0.80;99.90
17687;DHT22;8962;52.538;13.266;2023-04-03T05:43:46;0.80;99.90
17687;DHT22;8962;52.538;13.266;2023-04-03T05:46:16;1.10;99.90
17687;DHT22;8962;52.538;13.266;2023-04-03T05:48:48;0.90;99.90
17687;DHT22;8962;52.538;13.266;2023-04-03T05:51:22;0.90;99.90
17687;DHT22;8962;52.538;13.266;2023-04-03T05:53:56;1.00;99.90
17687;DHT22;8962;52.538;13.266;2023-04-03T05:56:26;1.00;99.90
17687;DHT22;8962;52.538;13.266;2023-04-03T05:58:54;1.10;99.90
17687;DHT22;8962;52.538;13.266;2023-04-03T06:01:22;1.40;99.90
17687;DHT22;8962;52.538;13.266;2023-04-03T06:03:51;1.60;99.90
17687;DHT22;8962;52.538;13.266;2023-04-03T06:06:20;1.70;99.90
17687;DHT22;8962;52.538;13.266;2023-04-03T06:08:47;1.60;99.90
17687;DHT22;8962;52.538;13.266;2023-04-03T06:11:15;1.70;99.90
17687;DHT22;8962;52.538;13.266;2023-04-03T06:13:42;1.80;99.90
17687;DHT22;8962;52.538;13.266;2023-04-03T06:16:12;1.80;99.90
17687;DHT22;8962;52.538;13.266;2023-04-03T06:18:41;1.90;99.90
17687;DHT22;8962;52.538;13.266;2023-04-03T06:21:10;2.00;99.90
17687;DHT22;8962;52.538;13.266;2023-04-03T06:23:37;2.10;99.90
17687;DHT22;8962;52.538;13.266;2023-04-03T06:26:05;2.10;99.90
17687;DHT22;8962;52.538;13.266;2023-04-03T06:28:32;2.20;99.90
17687;DHT22;8962;52.538;13.266;2023-04-03T06:30:59;2.30;99.90
17687;DHT22;8962;52.538;13.266;2023-04-03T06:33:26;2.20;99.90
17687;DHT22;8962;52.538;13.266;2023-04-03T06:35:58;2.20;99.90
17687;DHT22;8962;52.538;13.266;2023-04-03T06:38:26;2.30;99.90
17687;DHT22;8962;52.538;13.266;2023-04-03T06:40:53;2.40;99.90
17687;DHT22;8962;52.538;13.266;2023-04-03T06:43:22;2.40;99.90
17687;DHT22;8962;52.538;13.266;2023-04-03T06:45:50;2.40;99.90
17687;DHT22;8962;52.538;13.266;2023-04-03T06:48:17;2.50;99.90
17687;DHT22;8962;52.538;13.266;2023-04-03T06:50:44;2.50;99.90
17687;DHT22;8962;52.538;13.266;2023-04-03T06:53:12;2.50;99.90
17687;DHT22;8962;52.538;13.266;2023-04-03T06:55:40;2.60;99.90
17687;DHT22;8962;52.538;13.266;2023-04-03T06:58:08;2.70;99.90
17687;DHT22;8962;52.538;13.266;2023-04-03T07:00:35;2.80;99.90
17687;DHT22;8962;52.538;13.266;2023-04-03T07:03:02;3.00;99.90
17687;DHT22;8962;52.538;13.266;2023-04-03T07:05:30;3.00;99.90
17687;DHT22;8962;52.538;13.266;2023-04-03T07:07:57;3.00;99.90
17687;DHT22;8962;52.538;13.266;2023-04-03T07:10:24;3.10;99.90
17687;DHT22;8962;52.538;13.266;2023-04-03T07:12:52;3.10;99.90
17687;DHT22;8962;52.538;13.266;2023-04-03T07:15:20;3.20;99.90
17687;DHT22;8962;52.538;13.266;2023-04-03T07:17:47;3.20;99.90
17687;DHT22;8962;52.538;13.266;2023-04-03T07:20:15;3.20;99.90
17687;DHT22;8962;52.538;13.266;2023-04-03T07:22:42;3.30;99.90
17687;DHT22;8962;52.538;13.266;2023-04-03T07:25:09;3.60;99.90
17687;DHT22;8962;52.538;13.266;2023-04-03T07:27:36;3.90;99.90
17687;DHT22;8962;52.538;13.266;2023-04-03T07:30:07;4.10;99.90
17687;DHT22;8962;52.538;13.266;2023-04-03T07:32:35;4.30;99.90
17687;DHT22;8962;52.538;13.266;2023-04-03T07:35:02;4.60;99.90
17687;DHT22;8962;52.538;13.266;2023-04-03T07:37:29;4.70;99.90
17687;DHT22;8962;52.538;13.266;2023-04-03T07:39:58;4.90;99.90
17687;DHT22;8962;52.538;13.266;2023-04-03T07:42:27;4.90;99.90
17687;DHT22;8962;52.538;13.266;2023-04-03T07:44:54;4.90;99.90
17687;DHT22;8962;52.538;13.266;2023-04-03T07:47:23;4.80;99.90
17687;DHT22;8962;52.538;13.266;2023-04-03T07:49:50;5.00;99.90
17687;DHT22;8962;52.538;13.266;2023-04-03T07:52:17;5.10;99.90
17687;DHT22;8962;52.538;13.266;2023-04-03T07:54:46;5.20;99.90
17687;DHT22;8962;52.538;13.266;2023-04-03T07:57:13;5.00;99.90
17687;DHT22;8962;52.538;13.266;2023-04-03T07:59:40;5.20;99.90
17687;DHT22;8962;52.538;13.266;2023-04-03T08:02:09;5.00;99.90
17687;DHT22;8962;52.538;13.266;2023-04-03T08:04:38;4.80;99.90
17687;DHT22;8962;52.538;13.266;2023-04-03T08:07:05;5.00;99.90
17687;DHT22;8962;52.538;13.266;2023-04-03T08:09:32;5.20;99.90
17687;DHT22;8962;52.538;13.266;2023-04-03T08:12:01;5.30;99.90
17687;DHT22;8962;52.538;13.266;2023-04-03T08:14:30;5.40;99.90
17687;DHT22;8962;52.538;13.266;2023-04-03T08:17:00;5.50;99.90
17687;DHT22;8962;52.538;13.266;2023-04-03T08:19:28;5.40;99.90
17687;DHT22;8962;52.538;13.266;2023-04-03T08:21:57;5.30;99.90
17687;DHT22;8962;52.538;13.266;2023-04-03T08:24:26;5.00;99.90
17687;DHT22;8962;52.538;13.266;2023-04-03T08:26:55;4.90;99.90
17687;DHT22;8962;52.538;13.266;2023-04-03T08:29:23;4.90;99.90
17687;DHT22;8962;52.538;13.266;2023-04-03T08:31:50;4.90;99.90
17687;DHT22;8962;52.538;13.266;2023-04-03T08:34:18;5.20;99.90
17687;DHT22;8962;52.538;13.266;2023-04-03T08:36:46;4.90;99.90
17687;DHT22;8962;52.538;13.266;2023-04-03T08:39:14;4.90;99.90
17687;DHT22;8962;52.538;13.266;2023-04-03T08:41:42;5.20;99.90
17687;DHT22;8962;52.538;13.266;2023-04-03T08:44:19;5.40;99.90
17687;DHT22;8962;52.538;13.266;2023-04-03T08:46:58;5.40;99.90
17687;DHT22;8962;52.538;13.266;2023-04-03T08:49:31;5.70;99.90
17687;DHT22;8962;52.538;13.266;2023-04-03T08:52:00;5.60;99.90
17687;DHT22;8962;52.538;13.266;2023-04-03T08:54:33;5.50;99.90
17687;DHT22;8962;52.538;13.266;2023-04-03T08:57:03;5.50;99.90
17687;DHT22;8962;52.538;13.266;2023-04-03T08:59:34;5.70;99.90
17687;DHT22;8962;52.538;13.266;2023-04-03T09:02:04;5.70;99.90
17687;DHT22;8962;52.538;13.266;2023-04-03T09:04:38;5.80;99.90
17687;DHT22;8962;52.538;13.266;2023-04-03T09:07:16;5.70;99.90
17687;DHT22;8962;52.538;13.266;2023-04-03T09:09:47;5.50;99.90
17687;DHT22;8962;52.538;13.266;2023-04-03T09:12:20;5.60;99.90
17687;DHT22;8962;52.538;13.266;2023-04-03T09:14:55;5.70;99.90
17687;DHT22;8962;52.538;13.266;2023-04-03T09:17:33;5.70;99.90
17687;DHT22;8962;52.538;13.266;2023-04-03T09:20:11;5.70;99.90
17687;DHT22;8962;52.538;13.266;2023-04-03T09:22:43;5.90;99.90
17687;DHT22;8962;52.538;13.266;2023-04-03T09:25:13;5.80;99.90
17687;DHT22;8962;52.538;13.266;2023-04-03T09:27:42;5.70;99.90
17687;DHT22;8962;52.538;13.266;2023-04-03T09:30:13;5.50;99.90
17687;DHT22;8962;52.538;13.266;2023-04-03T09:32:43;5.40;99.90
17687;DHT22;8962;52.538;13.266;2023-04-03T09:35:20;5.30;99.90
17687;DHT22;8962;52.538;13.266;2023-04-03T09:37:50;5.40;99.90
17687;DHT22;8962;52.538;13.266;2023-04-03T09:40:35;5.60;99.90
17687;DHT22;8962;52.538;13.266;2023-04-03T09:43:26;5.60;99.90
17687;DHT22;8962;52.538;13.266;2023-04-03T09:45:55;5.80;99.90
17687;DHT22;8962;52.538;13.266;2023-04-03T09:48:25;5.90;99.90
17687;DHT22;8962;52.538;13.266;2023-04-03T09:50:57;5.70;99.90
17687;DHT22;8962;52.538;13.266;2023-04-03T09:53:35;5.50;99.90
17687;DHT22;8962;52.538;13.266;2023-04-03T09:56:19;5.40;99.90
17687;DHT22;8962;52.538;13.266;2023-04-03T09:58:49;5.40;99.90
17687;DHT22;8962;52.538;13.266;2023-04-03T10:01:27;5.70;99.90
17687;DHT22;8962;52.538;13.266;2023-04-03T10:04:09;5.80;99.90
17687;DHT22;8962;52.538;13.266;2023-04-03T10:06:40;5.60;99.90
17687;DHT22;8962;52.538;13.266;2023-04-03T10:09:18;5.70;99.90
17687;DHT22;8962;52.538;13.266;2023-04-03T10:12:02;5.60;99.90
17687;DHT22;8962;52.538;13.266;2023-04-03T10:14:32;5.90;99.90
17687;DHT22;8962;52.538;13.266;2023-04-03T10:17:14;6.00;99.90
17687;DHT22;8962;52.538;13.266;2023-04-03T10:19:48;6.20;99.90
17687;DHT22;8962;52.538;13.266;2023-04-03T10:22:20;6.30;99.90
17687;DHT22;8962;52.538;13.266;2023-04-03T10:25:02;6.40;99.90
17687;DHT22;8962;52.538;13.266;2023-04-03T10:27:43;6.10;99.90
17687;DHT22;8962;52.538;13.266;2023-04-03T10:30:21;6.00;99.90
17687;DHT22;8962;52.538;13.266;2023-04-03T10:32:58;6.30;99.90
17687;DHT22;8962;52.538;13.266;2023-04-03T10:35:38;6.50;99.90
17687;DHT22;8962;52.538;13.266;2023-04-03T10:38:18;6.60;99.90
17687;DHT22;8962;52.538;13.266;2023-04-03T10:40:52;6.90;99.90
17687;DHT22;8962;52.538;13.266;2023-04-03T10:43:31;6.90;99.90
17687;DHT22;8962;52.538;13.266;2023-04-03T10:46:03;7.20;99.90
17687;DHT22;8962;52.538;13.266;2023-04-03T10:48:45;7.60;99.90
17687;DHT22;8962;52.538;13.266;2023-04-03T10:51:24;7.60;99.90
17687;DHT22;8962;52.538;13.266;2023-04-03T10:53:57;7.50;99.90
17687;DHT22;8962;52.538;13.266;2023-04-03T10:56:31;7.60;99.90
17687;DHT22;8962;52.538;13.266;2023-04-03T10:59:13;7.20;99.90
17687;DHT22;8962;52.538;13.266;2023-04-03T11:01:45;7.10;99.90
17687;DHT22;8962;52.538;13.266;2023-04-03T11:04:13;7.20;99.90
17687;DHT22;8962;52.538;13.266;2023-04-03T11:06:46;7.40;99.90
17687;DHT22;8962;52.538;13.266;2023-04-03T11:09:21;7.50;99.90
17687;DHT22;8962;52.538;13.266;2023-04-03T11:11:53;7.60;99.90
17687;DHT22;8962;52.538;13.266;2023-04-03T11:14:28;7.70;99.90
17687;DHT22;8962;52.538;13.266;2023-04-03T11:17:19;7.80;99.90
17687;DHT22;8962;52.538;13.266;2023-04-03T11:19:52;7.60;99.90
17687;DHT22;8962;52.538;13.266;2023-04-03T11:22:27;7.50;99.90
17687;DHT22;8962;52.538;13.266;2023-04-03T11:24:59;7.30;99.90
17687;DHT22;8962;52.538;13.266;2023-04-03T11:27:36;7.20;99.90
17687;DHT22;8962;52.538;13.266;2023-04-03T11:30:13;7.50;99.90
17687;DHT22;8962;52.538;13.266;2023-04-03T11:35:44;7.70;99.90
17687;DHT22;8962;52.538;13.266;2023-04-03T11:38:19;8.00;99.90
17687;DHT22;8962;52.538;13.266;2023-04-03T11:40:50;8.10;99.90
17687;DHT22;8962;52.538;13.266;2023-04-03T11:43:22;8.20;99.90
17687;DHT22;8962;52.538;13.266;2023-04-03T11:45:57;7.70;99.90
17687;DHT22;8962;52.538;13.266;2023-04-03T11:48:57;7.40;99.90
17687;DHT22;8962;52.538;13.266;2023-04-03T11:51:42;7.10;99.90
17687;DHT22;8962;52.538;13.266;2023-04-03T11:54:43;6.90;99.90
17687;DHT22;8962;52.538;13.266;2023-04-03T11:57:44;7.10;99.90
17687;DHT22;8962;52.538;13.266;2023-04-03T12:13:00;6.90;99.90
17687;DHT22;8962;52.538;13.266;2023-04-03T12:15:51;6.80;99.90
17687;DHT22;8962;52.538;13.266;2023-04-03T12:18:55;7.10;99.90
17687;DHT22;8962;52.538;13.266;2023-04-03T12:21:24;7.20;99.90
17687;DHT22;8962;52.538;13.266;2023-04-03T12:24:25;7.10;99.90
17687;DHT22;8962;52.538;13.266;2023-04-03T12:27:03;6.90;99.90
17687;DHT22;8962;52.538;13.266;2023-04-03T12:29:43;6.90;99.90
17687;DHT22;8962;52.538;13.266;2023-04-03T12:32:23;7.00;99.90
17687;DHT22;8962;52.538;13.266;2023-04-03T12:35:05;7.40;99.90
17687;DHT22;8962;52.538;13.266;2023-04-03T12:38:14;7.20;99.90
17687;DHT22;8962;52.538;13.266;2023-04-03T12:40:48;7.30;99.90
17687;DHT22;8962;52.538;13.266;2023-04-03T12:46:19;7.50;99.90
17687;DHT22;8962;52.538;13.266;2023-04-03T12:48:49;7.10;99.90
17687;DHT22;8962;52.538;13.266;2023-04-03T12:51:20;6.90;99.90
17687;DHT22;8962;52.538;13.266;2023-04-03T12:53:51;7.10;99.90
17687;DHT22;8962;52.538;13.266;2023-04-03T12:56:22;7.20;99.90
17687;DHT22;8962;52.538;13.266;2023-04-03T12:58:51;7.90;99.90
17687;DHT22;8962;52.538;13.266;2023-04-03T13:01:21;8.20;99.60
17687;DHT22;8962;52.538;13.266;2023-04-03T13:03:54;8.20;99.10
17687;DHT22;8962;52.538;13.266;2023-04-03T13:06:26;8.50;99.50
17687;DHT22;8962;52.538;13.266;2023-04-03T13:08:55;8.50;98.60
17687;DHT22;8962;52.538;13.266;2023-04-03T13:11:25;8.30;99.50
17687;DHT22;8962;52.538;13.266;2023-04-03T13:13:57;7.90;99.90
17687;DHT22;8962;52.538;13.266;2023-04-03T13:16:27;7.70;99.50
17687;DHT22;8962;52.538;13.266;2023-04-03T13:18:57;7.30;99.90
17687;DHT22;8962;52.538;13.266;2023-04-03T13:21:27;7.20;99.90
17687;DHT22;8962;52.538;13.266;2023-04-03T13:23:57;7.10;99.90
17687;DHT22;8962;52.538;13.266;2023-04-03T13:26:26;7.00;99.90
17687;DHT22;8962;52.538;13.266;2023-04-03T13:28:56;6.70;99.90
17687;DHT22;8962;52.538;13.266;2023-04-03T13:31:28;6.50;99.90
17687;DHT22;8962;52.538;13.266;2023-04-03T13:34:02;6.40;99.90
17687;DHT22;8962;52.538;13.266;2023-04-03T13:36:32;6.30;99.90
17687;DHT22;8962;52.538;13.266;2023-04-03T13:39:06;6.40;99.90
17687;DHT22;8962;52.538;13.266;2023-04-03T13:41:35;6.40;99.90
17687;DHT22;8962;52.538;13.266;2023-04-03T13:44:22;6.50;99.90
17687;DHT22;8962;52.538;13.266;2023-04-03T13:46:55;6.50;99.90
17687;DHT22;8962;52.538;13.266;2023-04-03T13:49:30;6.50;99.90
17687;DHT22;8962;52.538;13.266;2023-04-03T13:51:58;6.50;99.90
17687;DHT22;8962;52.538;13.266;2023-04-03T13:54:31;6.40;99.90
17687;DHT22;8962;52.538;13.266;2023-04-03T13:57:00;6.20;99.90
17687;DHT22;8962;52.538;13.266;2023-04-03T13:59:29;6.30;99.90
17687;DHT22;8962;52.538;13.266;2023-04-03T14:02:16;6.30;99.90
17687;DHT22;8962;52.538;13.266;2023-04-03T14:04:48;6.50;99.90
17687;DHT22;8962;52.538;13.266;2023-04-03T14:07:18;6.50;99.90
17687;DHT22;8962;52.538;13.266;2023-04-03T14:09:47;6.40;99.90
17687;DHT22;8962;52.538;13.266;2023-04-03T14:12:16;6.10;99.90
17687;DHT22;8962;52.538;13.266;2023-04-03T14:14:46;6.10;99.90
17687;DHT22;8962;52.538;13.266;2023-04-03T14:17:17;6.20;99.90
17687;DHT22;8962;52.538;13.266;2023-04-03T14:19:46;6.30;99.90
17687;DHT22;8962;52.538;13.266;2023-04-03T14:22:19;6.20;99.90
17687;DHT22;8962;52.538;13.266;2023-04-03T14:24:48;6.40;99.90
17687;DHT22;8962;52.538;13.266;2023-04-03T14:27:19;6.30;99.90
17687;DHT22;8962;52.538;13.266;2023-04-03T14:29:48;6.20;99.90
17687;DHT22;8962;52.538;13.266;2023-04-03T14:32:18;6.00;99.90
17687;DHT22;8962;52.538;13.266;2023-04-03T14:34:47;6.10;99.90
17687;DHT22;8962;52.538;13.266;2023-04-03T14:37:20;6.40;99.90
17687;DHT22;8962;52.538;13.266;2023-04-03T14:39:50;6.60;99.90
17687;DHT22;8962;52.538;13.266;2023-04-03T14:42:21;6.80;99.90
17687;DHT22;8962;52.538;13.266;2023-04-03T14:44:50;6.90;99.90
17687;DHT22;8962;52.538;13.266;2023-04-03T14:47:21;7.00;99.90
17687;DHT22;8962;52.538;13.266;2023-04-03T14:49:49;7.50;99.90
17687;DHT22;8962;52.538;13.266;2023-04-03T14:52:22;8.10;99.90
17687;DHT22;8962;52.538;13.266;2023-04-03T14:54:53;8.40;99.90
17687;DHT22;8962;52.538;13.266;2023-04-03T14:57:23;8.30;99.90
17687;DHT22;8962;52.538;13.266;2023-04-03T14:59:53;8.10;99.90
17687;DHT22;8962;52.538;13.266;2023-04-03T15:02:29;7.70;99.90
17687;DHT22;8962;52.538;13.266;2023-04-03T15:04:58;7.10;99.90
17687;DHT22;8962;52.538;13.266;2023-04-03T15:07:28;6.90;99.90
17687;DHT22;8962;52.538;13.266;2023-04-03T15:09:56;6.70;99.90
17687;DHT22;8962;52.538;13.266;2023-04-03T15:12:27;6.20;99.90
17687;DHT22;8962;52.538;13.266;2023-04-03T15:14:54;6.40;99.90
17687;DHT22;8962;52.538;13.266;2023-04-03T15:17:22;6.40;99.90
17687;DHT22;8962;52.538;13.266;2023-04-03T15:19:51;6.40;99.90
17687;DHT22;8962;52.538;13.266;2023-04-03T15:22:19;6.40;99.90
17687;DHT22;8962;52.538;13.266;2023-04-03T15:24:46;6.30;99.90
17687;DHT22;8962;52.538;13.266;2023-04-03T15:27:14;6.20;99.90
17687;DHT22;8962;52.538;13.266;2023-04-03T15:29:43;6.20;99.90
17687;DHT22;8962;52.538;13.266;2023-04-03T15:32:12;5.90;99.90
17687;DHT22;8962;52.538;13.266;2023-04-03T15:34:39;5.80;99.90
17687;DHT22;8962;52.538;13.266;2023-04-03T15:37:09;5.60;99.90
17687;DHT22;8962;52.538;13.266;2023-04-03T15:39:37;5.50;99.90
17687;DHT22;8962;52.538;13.266;2023-04-03T15:42:07;5.50;99.90
17687;DHT22;8962;52.538;13.266;2023-04-03T15:44:35;5.50;99.90
17687;DHT22;8962;52.538;13.266;2023-04-03T15:47:03;5.50;99.90
17687;DHT22;8962;52.538;13.266;2023-04-03T15:49:31;5.40;99.90
17687;DHT22;8962;52.538;13.266;2023-04-03T15:51:59;5.30;99.90
17687;DHT22;8962;52.538;13.266;2023-04-03T15:54:29;5.30;99.90
17687;DHT22;8962;52.538;13.266;2023-04-03T15:56:58;5.50;99.90
17687;DHT22;8962;52.538;13.266;2023-04-03T15:59:25;5.40;99.90
17687;DHT22;8962;52.538;13.266;2023-04-03T16:01:54;5.40;99.90
17687;DHT22;8962;52.538;13.266;2023-04-03T16:04:22;5.40;99.90
17687;DHT22;8962;52.538;13.266;2023-04-03T16:06:49;5.50;99.90
17687;DHT22;8962;52.538;13.266;2023-04-03T16:09:17;5.50;99.90
17687;DHT22;8962;52.538;13.266;2023-04-03T16:11:45;5.40;99.90
17687;DHT22;8962;52.538;13.266;2023-04-03T16:14:14;5.20;99.90
17687;DHT22;8962;52.538;13.266;2023-04-03T16:16:42;5.20;99.90
17687;DHT22;8962;52.538;13.266;2023-04-03T16:19:11;5.20;99.90
17687;DHT22;8962;52.538;13.266;2023-04-03T16:21:40;5.10;99.90
17687;DHT22;8962;52.538;13.266;2023-04-03T16:24:08;5.00;99.90
17687;DHT22;8962;52.538;13.266;2023-04-03T16:26:36;4.90;99.90
17687;DHT22;8962;52.538;13.266;2023-04-03T16:29:05;4.90;99.90
17687;DHT22;8962;52.538;13.266;2023-04-03T16:31:35;5.00;99.90